sensor_id;sensor_type;location;lat;lon;timestamp;pressure;altitude;pressure_sealevel;temperature;humidity
8320;BME280;4197;42.130;24.746;2023-04-24T00:00:03;99384.75;;;9.83;100.00
8320;BME280;4197;42.130;24.746;2023-04-24T00:02:33;99382.66;;;9.76;100.00
8320;BME280;4197;42.130;24.746;2023-04-24T00:05:01;99387.09;;;9.85;100.00
8320;BME280;4197;42.130;24.746;2023-04-24T00:07:30;99389.97;;;9.92;100.00
8320;BME280;4197;42.130;24.746;2023-04-24T00:09:58;99389.38;;;9.82;100.00
8320;BME280;4197;42.130;24.746;2023-04-24T00:12:26;99384.47;;;9.72;100.00
8320;BME280;4197;42.130;24.746;2023-04-24T00:14:56;99383.25;;;9.70;100.00
8320;BME280;4197;42.130;24.746;2023-04-24T00:17:24;99379.50;;;9.74;100.00
8320;BME280;4197;42.130;24.746;2023-04-24T00:19:53;99384.75;;;9.67;100.00
8320;BME280;4197;42.130;24.746;2023-04-24T00:22:25;99393.84;;;9.59;100.00
8320;BME280;4197;42.130;24.746;2023-04-24T00:24:54;99386.38;;;9.56;100.00
8320;BME280;4197;42.130;24.746;2023-04-24T00:27:22;99383.50;;;9.49;100.00
8320;BME280;4197;42.130;24.746;2023-04-24T00:29:50;99375.19;;;9.42;100.00
8320;BME280;4197;42.130;24.746;2023-04-24T00:32:19;99377.81;;;9.38;100.00
8320;BME280;4197;42.130;24.746;2023-04-24T00:34:48;99375.19;;;9.42;100.00
8320;BME280;4197;42.130;24.746;2023-04-24T00:37:16;99385.16;;;9.37;100.00
8320;BME280;4197;42.130;24.746;2023-04-24T00:39:44;99377.13;;;9.41;100.00
8320;BME280;4197;42.130;24.746;2023-04-24T00:42:12;99364.22;;;9.34;100.00
8320;BME280;4197;42.130;24.746;2023-04-24T00:44:41;99367.16;;;9.29;100.00
8320;BME280;4197;42.130;24.746;2023-04-24T00:47:09;99373.28;;;9.26;100.00
8320;BME280;4197;42.130;24.746;2023-04-24T00:49:40;99364.78;;;9.28;100.00
8320;BME280;4197;42.130;24.746;2023-04-24T00:52:09;99365.03;;;9.23;100.00
8320;BME280;4197;42.130;24.746;2023-04-24T00:54:37;99366.72;;;9.27;100.00
8320;BME280;4197;42.130;24.746;2023-04-24T00:57:05;99372.03;;;9.24;100.00
8320;BME280;4197;42.130;24.746;2023-04-24T00:59:34;99366.88;;;9.19;100.00
8320;BME280;4197;42.130;24.746;2023-04-24T01:02:03;99368.03;;;9.18;100.00
8320;BME280;4197;42.130;24.746;2023-04-24T01:04:32;99357.53;;;9.16;100.00
8320;BME280;4197;42.130;24.746;2023-04-24T01:07:02;99375.25;;;9.13;100.00
8320;BME280;4197;42.130;24.746;2023-04-24T01:09:31;99367.72;;;9.07;100.00
8320;BME280;4197;42.130;24.746;2023-04-24T01:11:59;99372.00;;;9.08;100.00
8320;BME280;4197;42.130;24.746;2023-04-24T01:14:28;99365.97;;;8.99;100.00
8320;BME280;4197;42.130;24.746;2023-04-24T01:16:58;99373.19;;;8.94;100.00
8320;BME280;4197;42.130;24.746;2023-04-24T01:19:27;99369.94;;;8.89;100.00
8320;BME280;4197;42.130;24.746;2023-04-24T01:21:58;99364.44;;;8.85;100.00
8320;BME280;4197;42.130;24.746;2023-04-24T01:24:28;99362.75;;;8.81;100.00
8320;BME280;4197;42.130;24.746;2023-04-24T01:26:56;99368.97;;;8.81;100.00
8320;BME280;4197;42.130;24.746;2023-04-24T01:29:25;99368.38;;;8.88;100.00
8320;BME280;4197;42.130;24.746;2023-04-24T01:31:53;99372.75;;;8.92;100.00
8320;BME280;4197;42.130;24.746;2023-04-24T01:34:24;99370.91;;;8.97;100.00
8320;BME280;4197;42.130;24.746;2023-04-24T01:36:53;99373.38;;;9.02;100.00
8320;BME280;4197;42.130;24.746;2023-04-24T01:39:23;99380.59;;;8.98;100.00
8320;BME280;4197;42.130;24.746;2023-04-24T01:41:53;99377.91;;;8.98;100.00
8320;BME280;4197;42.130;24.746;2023-04-24T01:44:22;99377.34;;;8.92;100.00
8320;BME280;4197;42.130;24.746;2023-04-24T01:46:51;99377.50;;;8.83;100.00
8320;BME280;4197;42.130;24.746;2023-04-24T01:49:20;99372.59;;;8.73;100.00
8320;BME280;4197;42.130;24.746;2023-04-24T01:51:49;99368.22;;;8.56;100.00
8320;BME280;4197;42.130;24.746;2023-04-24T01:54:17;99367.94;;;8.45;100.00
8320;BME280;4197;42.130;24.746;2023-04-24T01:56:46;99367.59;;;8.47;100.00
8320;BME280;4197;42.130;24.746;2023-04-24T01:59:17;99369.28;;;8.52;100.00
8320;BME280;4197;42.130;24.746;2023-04-24T02:01:45;99369.50;;;8.46;100.00
8320;BME280;4197;42.130;24.746;2023-04-24T02:04:13;99366.91;;;8.38;100.00
8320;BME280;4197;42.130;24.746;2023-04-24T02:06:42;99369.06;;;8.32;100.00
8320;BME280;4197;42.130;24.746;2023-04-24T02:09:10;99360.03;;;8.28;100.00
8320;BME280;4197;42.130;24.746;2023-04-24T02:11:38;99360.97;;;8.32;100.00
8320;BME280;4197;42.130;24.746;2023-04-24T02:14:06;99367.16;;;8.20;100.00
8320;BME280;4197;42.130;24.746;2023-04-24T02:16:36;99352.06;;;8.19;100.00
8320;BME280;4197;42.130;24.746;2023-04-24T02:19:04;99353.66;;;8.08;100.00
8320;BME280;4197;42.130;24.746;2023-04-24T02:21:33;99354.25;;;8.01;100.00
8320;BME280;4197;42.130;24.746;2023-04-24T02:24:01;99344.81;;;7.95;100.00
8320;BME280;4197;42.130;24.746;2023-04-24T02:26:31;99347.69;;;8.02;100.00
8320;BME280;4197;42.130;24.746;2023-04-24T02:28:59;99352.09;;;8.07;100.00
8320;BME280;4197;42.130;24.746;2023-04-24T02:31:28;99335.09;;;7.94;100.00
8320;BME280;4197;42.130;24.746;2023-04-24T02:33:57;99341.41;;;7.86;100.00
8320;BME280;4197;42.130;24.746;2023-04-24T02:36:26;99340.06;;;7.80;100.00
8320;BME280;4197;42.130;24.746;2023-04-24T02:38:54;99341.06;;;7.75;100.00
8320;BME280;4197;42.130;24.746;2023-04-24T02:41:22;99334.88;;;7.75;100.00
8320;BME280;4197;42.130;24.746;2023-04-24T02:43:50;99336.91;;;7.78;100.00
8320;BME280;4197;42.130;24.746;2023-04-24T02:46:18;99338.25;;;7.72;100.00
8320;BME280;4197;42.130;24.746;2023-04-24T02:48:46;99343.09;;;7.66;100.00
8320;BME280;4197;42.130;24.746;2023-04-24T02:51:16;99336.81;;;7.62;100.00
8320;BME280;4197;42.130;24.746;2023-04-24T02:53:44;99336.69;;;7.58;100.00
8320;BME280;4197;42.130;24.746;2023-04-24T02:56:12;99337.13;;;7.60;100.00
8320;BME280;4197;42.130;24.746;2023-04-24T02:58:40;99337.25;;;7.64;100.00
8320;BME280;4197;42.130;24.746;2023-04-24T03:01:09;99342.78;;;7.68;100.00
8320;BME280;4197;42.130;24.746;2023-04-24T03:03:37;99344.34;;;7.69;100.00
8320;BME280;4197;42.130;24.746;2023-04-24T03:06:06;99339.25;;;7.67;100.00
8320;BME280;4197;42.130;24.746;2023-04-24T03:08:36;99336.47;;;7.64;100.00
8320;BME280;4197;42.130;24.746;2023-04-24T03:11:04;99340.50;;;7.70;100.00
8320;BME280;4197;42.130;24.746;2023-04-24T03:13:32;99334.53;;;7.64;100.00
8320;BME280;4197;42.130;24.746;2023-04-24T03:16:00;99342.53;;;7.60;100.00
8320;BME280;4197;42.130;24.746;2023-04-24T03:18:29;99345.91;;;7.57;100.00
8320;BME280;4197;42.130;24.746;2023-04-24T03:20:58;99346.03;;;7.73;100.00
8320;BME280;4197;42.130;24.746;2023-04-24T03:23:29;99356.84;;;7.73;100.00
8320;BME280;4197;42.130;24.746;2023-04-24T03:26:01;99354.34;;;7.68;100.00
8320;BME280;4197;42.130;24.746;2023-04-24T03:28:29;99351.75;;;7.72;100.00
8320;BME280;4197;42.130;24.746;2023-04-24T03:30:57;99351.09;;;7.75;100.00
8320;BME280;4197;42.130;24.746;2023-04-24T03:33:26;99357.16;;;7.72;100.00
8320;BME280;4197;42.130;24.746;2023-04-24T03:35:55;99355.69;;;7.74;100.00
8320;BME280;4197;42.130;24.746;2023-04-24T03:38:23;99359.41;;;7.94;100.00
8320;BME280;4197;42.130;24.746;2023-04-24T03:40:52;99361.09;;;7.99;100.00
8320;BME280;4197;42.130;24.746;2023-04-24T03:43:22;99364.69;;;8.03;100.00
8320;BME280;4197;42.130;24.746;2023-04-24T03:45:50;99359.63;;;8.01;100.00
8320;BME280;4197;42.130;24.746;2023-04-24T03:48:18;99358.97;;;8.04;100.00
8320;BME280;4197;42.130;24.746;2023-04-24T03:50:46;99359.84;;;8.21;100.00
8320;BME280;4197;42.130;24.746;2023-04-24T03:53:16;99357.34;;;8.28;100.00
8320;BME280;4197;42.130;24.746;2023-04-24T03:55:44;99351.25;;;8.31;100.00
8320;BME280;4197;42.130;24.746;2023-04-24T03:58:12;99336.97;;;8.43;100.00
8320;BME280;4197;42.130;24.746;2023-04-24T04:00:42;99353.06;;;8.39;100.00
8320;BME280;4197;42.130;24.746;2023-04-24T04:03:11;99356.88;;;8.38;100.00
8320;BME280;4197;42.130;24.746;2023-04-24T04:05:40;99352.59;;;8.49;100.00
8320;BME280;4197;42.130;24.746;2023-04-24T04:08:08;99351.91;;;8.53;100.00
8320;BME280;4197;42.130;24.746;2023-04-24T04:10:36;99359.34;;;8.56;100.00
8320;BME280;4197;42.130;24.746;2023-04-24T04:13:04;99361.66;;;8.69;100.00
8320;BME280;4197;42.130;24.746;2023-04-24T04:15:33;99367.47;;;8.84;100.00
8320;BME280;4197;42.130;24.746;2023-04-24T04:18:03;99370.16;;;8.96;100.00
8320;BME280;4197;42.130;24.746;2023-04-24T04:20:32;99376.88;;;9.02;100.00
8320;BME280;4197;42.130;24.746;2023-04-24T04:23:00;99367.97;;;9.02;100.00
8320;BME280;4197;42.130;24.746;2023-04-24T04:25:28;99375.16;;;9.10;100.00
8320;BME280;4197;42.130;24.746;2023-04-24T04:27:56;99375.97;;;9.26;100.00
8320;BME280;4197;42.130;24.746;2023-04-24T04:30:26;99385.16;;;9.37;100.00
8320;BME280;4197;42.130;24.746;2023-04-24T04:32:56;99385.25;;;9.41;100.00
8320;BME280;4197;42.130;24.746;2023-04-24T04:35:25;99393.31;;;9.53;100.00
8320;BME280;4197;42.130;24.746;2023-04-24T04:37:54;99379.50;;;9.74;100.00
8320;BME280;4197;42.130;24.746;2023-04-24T04:40:22;99391.63;;;9.80;100.00
8320;BME280;4197;42.130;24.746;2023-04-24T04:42:51;99388.75;;;9.89;100.00
8320;BME280;4197;42.130;24.746;2023-04-24T04:45:19;99392.41;;;9.97;100.00
8320;BME280;4197;42.130;24.746;2023-04-24T04:47:48;99389.19;;;10.07;100.00
8320;BME280;4197;42.130;24.746;2023-04-24T04:50:35;99383.31;;;10.21;100.00
8320;BME280;4197;42.130;24.746;2023-04-24T04:53:04;99396.78;;;10.33;100.00
8320;BME280;4197;42.130;24.746;2023-04-24T04:55:32;99385.81;;;10.45;100.00
8320;BME280;4197;42.130;24.746;2023-04-24T04:58:00;99382.38;;;10.29;100.00
8320;BME280;4197;42.130;24.746;2023-04-24T05:00:28;99378.69;;;10.37;100.00
8320;BME280;4197;42.130;24.746;2023-04-24T05:03:02;99383.88;;;10.46;100.00
8320;BME280;4197;42.130;24.746;2023-04-24T05:05:48;99382.00;;;11.05;100.00
8320;BME280;4197;42.130;24.746;2023-04-24T05:08:16;99374.41;;;11.14;100.00
8320;BME280;4197;42.130;24.746;2023-04-24T05:10:52;99375.19;;;11.34;100.00
8320;BME280;4197;42.130;24.746;2023-04-24T05:13:22;99375.84;;;11.50;100.00
8320;BME280;4197;42.130;24.746;2023-04-24T05:16:04;99373.63;;;11.56;100.00
8320;BME280;4197;42.130;24.746;2023-04-24T05:18:32;99370.22;;;11.63;100.00
8320;BME280;4197;42.130;24.746;2023-04-24T05:21:02;99371.97;;;11.51;100.00
8320;BME280;4197;42.130;24.746;2023-04-24T05:23:31;99364.31;;;11.57;100.00
8320;BME280;4197;42.130;24.746;2023-04-24T05:25:59;99365.22;;;11.65;100.00
8320;BME280;4197;42.130;24.746;2023-04-24T05:28:27;99345.97;;;11.73;100.00
8320;BME280;4197;42.130;24.746;2023-04-24T05:30:55;99352.00;;;11.63;100.00
8320;BME280;4197;42.130;24.746;2023-04-24T05:33:23;99353.34;;;11.73;99.92
8320;BME280;4197;42.130;24.746;2023-04-24T05:35:52;99345.59;;;11.75;100.00
8320;BME280;4197;42.130;24.746;2023-04-24T05:38:23;99342.38;;;11.69;99.66
8320;BME280;4197;42.130;24.746;2023-04-24T05:40:51;99346.47;;;11.56;100.00
8320;BME280;4197;42.130;24.746;2023-04-24T05:43:19;99348.19;;;11.68;100.00
8320;BME280;4197;42.130;24.746;2023-04-24T05:45:47;99345.72;;;11.36;100.00
8320;BME280;4197;42.130;24.746;2023-04-24T05:48:16;99333.09;;;11.24;100.00
8320;BME280;4197;42.130;24.746;2023-04-24T05:50:44;99344.09;;;11.54;100.00
8320;BME280;4197;42.130;24.746;2023-04-24T05:53:15;99350.13;;;11.44;100.00
8320;BME280;4197;42.130;24.746;2023-04-24T05:55:45;99339.34;;;11.48;100.00
8320;BME280;4197;42.130;24.746;2023-04-24T05:58:13;99346.47;;;11.56;100.00
8320;BME280;4197;42.130;24.746;2023-04-24T06:00:42;99341.31;;;11.74;99.82
8320;BME280;4197;42.130;24.746;2023-04-24T06:03:12;99347.66;;;11.81;99.15
8320;BME280;4197;42.130;24.746;2023-04-24T06:05:41;99354.47;;;11.72;100.00
8320;BME280;4197;42.130;24.746;2023-04-24T06:08:09;99356.00;;;11.92;99.81
8320;BME280;4197;42.130;24.746;2023-04-24T06:10:38;99347.28;;;12.06;99.55
8320;BME280;4197;42.130;24.746;2023-04-24T06:13:08;99350.66;;;12.26;100.00
8320;BME280;4197;42.130;24.746;2023-04-24T06:15:36;99345.44;;;12.44;98.12
8320;BME280;4197;42.130;24.746;2023-04-24T06:18:04;99347.91;;;12.53;94.68
8320;BME280;4197;42.130;24.746;2023-04-24T06:20:33;99349.16;;;12.59;94.89
8320;BME280;4197;42.130;24.746;2023-04-24T06:23:01;99356.53;;;12.58;96.09
8320;BME280;4197;42.130;24.746;2023-04-24T06:25:29;99357.38;;;12.66;96.57
8320;BME280;4197;42.130;24.746;2023-04-24T06:27:57;99352.53;;;12.22;98.50
8320;BME280;4197;42.130;24.746;2023-04-24T06:30:27;99344.91;;;12.04;100.00
8320;BME280;4197;42.130;24.746;2023-04-24T06:32:55;99350.16;;;12.47;100.00
8320;BME280;4197;42.130;24.746;2023-04-24T06:35:35;99353.53;;;12.67;99.43
8320;BME280;4197;42.130;24.746;2023-04-24T06:38:05;99353.41;;;12.90;98.20
8320;BME280;4197;42.130;24.746;2023-04-24T06:40:33;99352.19;;;12.84;98.69
8320;BME280;4197;42.130;24.746;2023-04-24T06:43:01;99348.56;;;13.10;97.83
8320;BME280;4197;42.130;24.746;2023-04-24T06:45:31;99351.56;;;12.98;95.72
8320;BME280;4197;42.130;24.746;2023-04-24T06:47:59;99353.22;;;13.09;94.79
8320;BME280;4197;42.130;24.746;2023-04-24T06:50:27;99356.06;;;13.20;94.24
8320;BME280;4197;42.130;24.746;2023-04-24T06:52:55;99345.19;;;13.20;94.90
8320;BME280;4197;42.130;24.746;2023-04-24T06:55:24;99352.56;;;13.20;93.42
8320;BME280;4197;42.130;24.746;2023-04-24T06:57:52;99361.38;;;13.06;96.47
8320;BME280;4197;42.130;24.746;2023-04-24T07:00:20;99358.13;;;12.63;94.30
8320;BME280;4197;42.130;24.746;2023-04-24T07:02:52;99360.13;;;12.66;95.43
8320;BME280;4197;42.130;24.746;2023-04-24T07:05:21;99358.81;;;12.86;94.28
8320;BME280;4197;42.130;24.746;2023-04-24T07:07:50;99360.06;;;12.92;93.92
8320;BME280;4197;42.130;24.746;2023-04-24T07:10:19;99363.69;;;13.04;92.40
8320;BME280;4197;42.130;24.746;2023-04-24T07:12:48;99365.03;;;13.24;92.45
8320;BME280;4197;42.130;24.746;2023-04-24T07:15:16;99367.56;;;13.40;90.50
8320;BME280;4197;42.130;24.746;2023-04-24T07:17:44;99364.19;;;13.50;89.84
8320;BME280;4197;42.130;24.746;2023-04-24T07:20:21;99363.25;;;13.35;89.59
8320;BME280;4197;42.130;24.746;2023-04-24T07:22:50;99361.66;;;13.75;89.50
8320;BME280;4197;42.130;24.746;2023-04-24T07:25:20;99359.22;;;14.15;85.48
8320;BME280;4197;42.130;24.746;2023-04-24T07:27:49;99363.97;;;14.28;84.12
8320;BME280;4197;42.130;24.746;2023-04-24T07:30:17;99362.75;;;14.19;82.37
8320;BME280;4197;42.130;24.746;2023-04-24T07:32:45;99368.31;;;14.33;83.56
8320;BME280;4197;42.130;24.746;2023-04-24T07:35:15;99358.63;;;14.46;82.64
8320;BME280;4197;42.130;24.746;2023-04-24T07:37:43;99368.53;;;14.72;79.90
8320;BME280;4197;42.130;24.746;2023-04-24T07:40:12;99366.25;;;14.96;77.92
8320;BME280;4197;42.130;24.746;2023-04-24T07:42:40;99355.78;;;15.05;75.91
8320;BME280;4197;42.130;24.746;2023-04-24T07:45:10;99363.22;;;15.26;75.72
8320;BME280;4197;42.130;24.746;2023-04-24T07:47:38;99357.81;;;15.44;76.43
8320;BME280;4197;42.130;24.746;2023-04-24T07:50:07;99356.25;;;15.57;75.67
8320;BME280;4197;42.130;24.746;2023-04-24T07:52:37;99356.22;;;15.29;75.16
8320;BME280;4197;42.130;24.746;2023-04-24T07:55:06;99354.63;;;15.21;75.43
8320;BME280;4197;42.130;24.746;2023-04-24T07:57:35;99354.63;;;15.17;75.81
8320;BME280;4197;42.130;24.746;2023-04-24T08:00:05;99351.94;;;15.56;73.93
8320;BME280;4197;42.130;24.746;2023-04-24T08:02:33;99348.44;;;15.59;72.56
8320;BME280;4197;42.130;24.746;2023-04-24T08:05:02;99342.63;;;15.72;73.00
8320;BME280;4197;42.130;24.746;2023-04-24T08:07:31;99341.41;;;15.44;74.04
8320;BME280;4197;42.130;24.746;2023-04-24T08:10:00;99340.66;;;15.97;73.02
8320;BME280;4197;42.130;24.746;2023-04-24T08:12:29;99339.03;;;16.18;72.62
8320;BME280;4197;42.130;24.746;2023-04-24T08:14:57;99329.19;;;16.53;72.61
8320;BME280;4197;42.130;24.746;2023-04-24T08:17:26;99325.00;;;16.16;69.71
8320;BME280;4197;42.130;24.746;2023-04-24T08:19:54;99317.19;;;16.03;72.11
8320;BME280;4197;42.130;24.746;2023-04-24T08:22:28;99329.31;;;16.02;70.83
8320;BME280;4197;42.130;24.746;2023-04-24T08:24:59;99330.09;;;15.71;73.26
8320;BME280;4197;42.130;24.746;2023-04-24T08:27:29;99328.16;;;15.82;71.80
8320;BME280;4197;42.130;24.746;2023-04-24T08:29:57;99319.16;;;15.92;71.63
8320;BME280;4197;42.130;24.746;2023-04-24T08:32:25;99306.28;;;15.78;73.43
8320;BME280;4197;42.130;24.746;2023-04-24T08:34:57;99311.25;;;16.26;70.24
8320;BME280;4197;42.130;24.746;2023-04-24T08:37:26;99312.47;;;16.15;69.83
8320;BME280;4197;42.130;24.746;2023-04-24T08:39:55;99298.47;;;15.91;70.97
8320;BME280;4197;42.130;24.746;2023-04-24T08:42:23;99300.00;;;15.60;73.85
8320;BME280;4197;42.130;24.746;2023-04-24T08:44:53;99296.13;;;15.97;73.39
8320;BME280;4197;42.130;24.746;2023-04-24T08:47:23;99290.19;;;16.13;70.43
8320;BME280;4197;42.130;24.746;2023-04-24T08:49:54;99296.03;;;16.18;70.83
8320;BME280;4197;42.130;24.746;2023-04-24T08:52:22;99294.13;;;16.12;70.21
8320;BME280;4197;42.130;24.746;2023-04-24T08:54:51;99293.38;;;16.08;70.25
8320;BME280;4197;42.130;24.746;2023-04-24T08:57:21;99294.56;;;15.99;72.03
8320;BME280;4197;42.130;24.746;2023-04-24T08:59:50;99289.44;;;16.12;70.98
8320;BME280;4197;42.130;24.746;2023-04-24T09:02:20;99286.31;;;16.14;69.46
8320;BME280;4197;42.130;24.746;2023-04-24T09:04:49;99279.66;;;16.11;71.29
8320;BME280;4197;42.130;24.746;2023-04-24T09:07:22;99281.22;;;16.16;69.72
8320;BME280;4197;42.130;24.746;2023-04-24T09:09:53;99278.13;;;16.10;70.64
8320;BME280;4197;42.130;24.746;2023-04-24T09:12:22;99279.69;;;16.08;70.61
8320;BME280;4197;42.130;24.746;2023-04-24T09:14:51;99271.88;;;15.99;70.61
8320;BME280;4197;42.130;24.746;2023-04-24T09:17:22;99283.91;;;16.30;69.84
8320;BME280;4197;42.130;24.746;2023-04-24T09:19:53;99276.41;;;16.52;69.31
8320;BME280;4197;42.130;24.746;2023-04-24T09:22:22;99266.19;;;16.60;69.49
8320;BME280;4197;42.130;24.746;2023-04-24T09:24:59;99264.25;;;16.53;69.81
8320;BME280;4197;42.130;24.746;2023-04-24T09:27:29;99267.03;;;16.42;69.78
8320;BME280;4197;42.130;24.746;2023-04-24T09:29:59;99264.59;;;16.62;71.67
8320;BME280;4197;42.130;24.746;2023-04-24T09:32:29;99260.97;;;16.90;67.82
8320;BME280;4197;42.130;24.746;2023-04-24T09:35:10;99255.19;;;16.74;66.72
8320;BME280;4197;42.130;24.746;2023-04-24T09:37:40;99257.50;;;16.83;65.75
8320;BME280;4197;42.130;24.746;2023-04-24T09:40:11;99254.06;;;16.61;66.09
8320;BME280;4197;42.130;24.746;2023-04-24T09:42:41;99254.16;;;16.39;67.33
8320;BME280;4197;42.130;24.746;2023-04-24T09:45:11;99248.13;;;16.73;66.88
8320;BME280;4197;42.130;24.746;2023-04-24T09:47:44;99253.53;;;16.87;65.41
8320;BME280;4197;42.130;24.746;2023-04-24T09:50:14;99237.88;;;16.91;66.09
8320;BME280;4197;42.130;24.746;2023-04-24T09:52:47;99232.19;;;17.20;65.46
8320;BME280;4197;42.130;24.746;2023-04-24T09:55:23;99230.69;;;17.57;65.35
8320;BME280;4197;42.130;24.746;2023-04-24T09:57:53;99226.19;;;17.77;63.09
8320;BME280;4197;42.130;24.746;2023-04-24T10:00:22;99232.88;;;17.76;63.11
8320;BME280;4197;42.130;24.746;2023-04-24T10:02:56;99227.81;;;17.71;62.39
8320;BME280;4197;42.130;24.746;2023-04-24T10:05:27;99221.75;;;17.49;64.22
8320;BME280;4197;42.130;24.746;2023-04-24T10:07:57;99230.56;;;17.26;64.97
8320;BME280;4197;42.130;24.746;2023-04-24T10:10:25;99227.38;;;17.31;67.02
8320;BME280;4197;42.130;24.746;2023-04-24T10:12:55;99228.16;;;17.35;66.58
8320;BME280;4197;42.130;24.746;2023-04-24T10:15:24;99222.16;;;17.48;67.60
8320;BME280;4197;42.130;24.746;2023-04-24T10:17:52;99215.63;;;17.79;66.66
8320;BME280;4197;42.130;24.746;2023-04-24T10:20:26;99215.13;;;17.88;64.83
8320;BME280;4197;42.130;24.746;2023-04-24T10:22:56;99199.63;;;17.67;65.49
8320;BME280;4197;42.130;24.746;2023-04-24T10:25:26;99199.84;;;17.49;66.77
8320;BME280;4197;42.130;24.746;2023-04-24T10:27:55;99203.88;;;17.75;65.68
8320;BME280;4197;42.130;24.746;2023-04-24T10:30:27;99194.59;;;17.66;66.76
8320;BME280;4197;42.130;24.746;2023-04-24T10:32:56;99199.97;;;17.76;65.59
8320;BME280;4197;42.130;24.746;2023-04-24T10:35:25;99195.19;;;17.84;66.28
8320;BME280;4197;42.130;24.746;2023-04-24T10:37:57;99186.06;;;17.94;65.42
8320;BME280;4197;42.130;24.746;2023-04-24T10:40:29;99171.84;;;18.03;66.53
8320;BME280;4197;42.130;24.746;2023-04-24T10:42:58;99185.94;;;18.05;67.36
8320;BME280;4197;42.130;24.746;2023-04-24T10:45:26;99172.41;;;18.21;66.47
8320;BME280;4197;42.130;24.746;2023-04-24T10:47:59;99162.91;;;17.95;65.98
8320;BME280;4197;42.130;24.746;2023-04-24T10:50:44;99163.44;;;18.17;66.69
8320;BME280;4197;42.130;24.746;2023-04-24T10:53:15;99158.53;;;18.59;65.26
8320;BME280;4197;42.130;24.746;2023-04-24T10:55:46;99162.50;;;18.85;65.03
8320;BME280;4197;42.130;24.746;2023-04-24T10:58:15;99158.19;;;19.08;64.55
8320;BME280;4197;42.130;24.746;2023-04-24T11:00:54;99149.16;;;19.31;64.13
8320;BME280;4197;42.130;24.746;2023-04-24T11:03:26;99153.00;;;19.57;63.29
8320;BME280;4197;42.130;24.746;2023-04-24T11:05:59;99144.59;;;19.44;60.78
8320;BME280;4197;42.130;24.746;2023-04-24T11:08:36;99159.44;;;19.03;62.48
8320;BME280;4197;42.130;24.746;2023-04-24T11:11:09;99150.00;;;18.81;64.68
8320;BME280;4197;42.130;24.746;2023-04-24T11:14:03;99149.00;;;18.94;64.82
8320;BME280;4197;42.130;24.746;2023-04-24T11:16:38;99148.03;;;19.05;63.40
8320;BME280;4197;42.130;24.746;2023-04-24T11:19:08;99136.38;;;18.73;65.64
8320;BME280;4197;42.130;24.746;2023-04-24T11:21:43;99141.34;;;18.55;65.71
8320;BME280;4197;42.130;24.746;2023-04-24T11:24:35;99131.88;;;18.60;66.06
8320;BME280;4197;42.130;24.746;2023-04-24T11:27:06;99125.75;;;18.99;66.69
8320;BME280;4197;42.130;24.746;2023-04-24T11:29:40;99128.75;;;19.52;62.40
8320;BME280;4197;42.130;24.746;2023-04-24T11:32:23;99125.75;;;19.43;62.23
8320;BME280;4197;42.130;24.746;2023-04-24T11:34:54;99117.66;;;19.55;62.48
8320;BME280;4197;42.130;24.746;2023-04-24T11:37:26;99119.59;;;19.78;62.29
8320;BME280;4197;42.130;24.746;2023-04-24T11:39:58;99124.75;;;19.96;61.54
8320;BME280;4197;42.130;24.746;2023-04-24T11:42:28;99113.44;;;20.11;61.10
8320;BME280;4197;42.130;24.746;2023-04-24T11:44:56;99120.19;;;20.26;60.12
8320;BME280;4197;42.130;24.746;2023-04-24T11:47:31;99110.81;;;20.40;60.05
8320;BME280;4197;42.130;24.746;2023-04-24T11:50:01;99107.22;;;20.43;59.47
8320;BME280;4197;42.130;24.746;2023-04-24T11:52:32;99089.69;;;19.80;60.42
8320;BME280;4197;42.130;24.746;2023-04-24T11:55:01;99089.22;;;19.22;63.63
8320;BME280;4197;42.130;24.746;2023-04-24T11:57:30;99074.00;;;19.17;65.51
8320;BME280;4197;42.130;24.746;2023-04-24T12:00:01;99060.00;;;19.52;65.29
8320;BME280;4197;42.130;24.746;2023-04-24T12:02:32;99062.25;;;19.77;63.40
8320;BME280;4197;42.130;24.746;2023-04-24T12:05:04;99063.88;;;20.11;61.89
8320;BME280;4197;42.130;24.746;2023-04-24T12:07:40;99055.28;;;20.09;60.97
8320;BME280;4197;42.130;24.746;2023-04-24T12:10:10;99057.84;;;19.99;61.50
8320;BME280;4197;42.130;24.746;2023-04-24T12:12:38;99049.41;;;19.90;61.61
8320;BME280;4197;42.130;24.746;2023-04-24T12:15:07;99026.44;;;19.60;64.62
8320;BME280;4197;42.130;24.746;2023-04-24T12:17:36;99005.53;;;19.83;64.30
8320;BME280;4197;42.130;24.746;2023-04-24T12:20:09;99021.44;;;19.92;63.85
8320;BME280;4197;42.130;24.746;2023-04-24T12:22:46;99007.50;;;19.82;63.95
8320;BME280;4197;42.130;24.746;2023-04-24T12:25:16;99004.22;;;19.71;64.76
8320;BME280;4197;42.130;24.746;2023-04-24T12:27:45;98997.81;;;19.94;65.25
8320;BME280;4197;42.130;24.746;2023-04-24T12:30:15;99003.41;;;20.07;63.66
8320;BME280;4197;42.130;24.746;2023-04-24T12:32:46;98990.59;;;20.17;64.28
8320;BME280;4197;42.130;24.746;2023-04-24T12:35:19;98982.69;;;20.35;62.60
8320;BME280;4197;42.130;24.746;2023-04-24T12:37:50;98984.66;;;20.18;63.54
8320;BME280;4197;42.130;24.746;2023-04-24T12:40:20;98981.41;;;20.40;62.08
8320;BME280;4197;42.130;24.746;2023-04-24T12:42:49;98977.09;;;20.55;62.03
8320;BME280;4197;42.130;24.746;2023-04-24T12:45:18;98977.13;;;20.84;60.52
8320;BME280;4197;42.130;24.746;2023-04-24T12:47:50;98969.97;;;20.87;60.88
8320;BME280;4197;42.130;24.746;2023-04-24T12:50:18;98958.03;;;21.06;59.50
8320;BME280;4197;42.130;24.746;2023-04-24T12:52:47;98954.47;;;21.06;58.20
8320;BME280;4197;42.130;24.746;2023-04-24T12:55:17;98948.13;;;21.22;57.83
8320;BME280;4197;42.130;24.746;2023-04-24T12:57:45;98957.63;;;21.21;56.31
8320;BME280;4197;42.130;24.746;2023-04-24T13:00:14;98953.56;;;20.96;56.10
8320;BME280;4197;42.130;24.746;2023-04-24T13:02:45;98936.81;;;20.90;57.18
8320;BME280;4197;42.130;24.746;2023-04-24T13:05:14;98937.03;;;20.96;56.92
8320;BME280;4197;42.130;24.746;2023-04-24T13:07:42;98942.09;;;20.98;56.53
8320;BME280;4197;42.130;24.746;2023-04-24T13:10:10;98943.59;;;21.15;54.74
8320;BME280;4197;42.130;24.746;2023-04-24T13:12:41;98925.50;;;21.14;55.73
8320;BME280;4197;42.130;24.746;2023-04-24T13:15:12;98921.88;;;21.30;56.25
8320;BME280;4197;42.130;24.746;2023-04-24T13:17:40;98922.88;;;21.36;54.64
8320;BME280;4197;42.130;24.746;2023-04-24T13:20:09;98920.38;;;21.42;54.69
8320;BME280;4197;42.130;24.746;2023-04-24T13:22:37;98930.75;;;21.37;54.91